createdAt,value
2019-02-20T00:02:21.670Z,120.05
2019-02-20T00:04:49.946Z,105.25
2019-02-20T00:07:18.248Z,111.50
2019-02-20T00:09:46.647Z,97.65
2019-02-20T00:12:14.907Z,119.10
2019-02-20T00:14:43.199Z,139.30
2019-02-20T00:17:11.472Z,364.00
2019-02-20T00:19:39.772Z,399.30
2019-02-20T00:22:08.044Z,299.32
2019-02-20T00:24:36.339Z,244.57
2019-02-20T00:27:04.628Z,274.37
2019-02-20T00:29:32.932Z,177.95
2019-02-20T00:32:01.197Z,229.57
2019-02-20T00:34:29.464Z,213.72
2019-02-20T00:36:57.747Z,225.87
2019-02-20T00:39:26.027Z,245.67
2019-02-20T00:41:54.283Z,223.13
2019-02-20T00:44:24.229Z,174.07
2019-02-20T00:47:06.071Z,149.70
2019-02-20T00:49:36.004Z,172.87
2019-02-20T00:52:21.004Z,152.05
2019-02-20T00:54:49.280Z,163.70
2019-02-20T00:57:17.570Z,171.68
2019-02-20T00:59:45.845Z,144.40
2019-02-20T01:02:14.136Z,94.00
2019-02-20T01:04:42.419Z,72.58
2019-02-20T01:07:10.686Z,72.92
2019-02-20T01:09:38.955Z,79.82
2019-02-20T01:12:07.310Z,81.42
2019-02-20T01:14:36.455Z,87.35
2019-02-20T01:17:04.693Z,92.78
2019-02-20T01:19:32.946Z,80.57
2019-02-20T01:22:01.236Z,86.63
2019-02-20T01:24:29.499Z,86.75
2019-02-20T01:26:57.787Z,90.80
2019-02-20T01:29:26.050Z,91.37
2019-02-20T01:31:54.319Z,91.47
2019-02-20T01:34:22.598Z,91.67
2019-02-20T01:36:50.878Z,82.72
2019-02-20T01:39:19.131Z,77.25
2019-02-20T01:41:47.400Z,78.52
2019-02-20T01:44:15.658Z,83.60
2019-02-20T01:46:43.978Z,77.65
2019-02-20T01:49:12.235Z,83.30
2019-02-20T01:51:40.493Z,83.50
2019-02-20T01:54:08.758Z,88.50
2019-02-20T01:56:37.009Z,77.90
2019-02-20T01:59:05.299Z,93.95
2019-02-20T02:01:33.551Z,126.87
2019-02-20T02:04:02.176Z,99.28
2019-02-20T02:06:30.446Z,93.52
2019-02-20T02:08:59.734Z,93.92
2019-02-20T02:11:28.123Z,102.60
2019-02-20T02:13:56.400Z,98.45
2019-02-20T02:16:24.685Z,96.97
2019-02-20T02:18:52.950Z,93.22
2019-02-20T02:21:21.220Z,97.95
2019-02-20T02:23:49.540Z,91.20
2019-02-20T02:26:17.816Z,89.77
2019-02-20T02:28:46.080Z,89.97
2019-02-20T02:31:14.559Z,84.13
2019-02-20T02:33:42.820Z,77.58
2019-02-20T02:36:11.077Z,77.67
2019-02-20T02:38:39.345Z,72.72
2019-02-20T02:41:07.619Z,73.33
2019-02-20T02:43:35.931Z,71.37
2019-02-20T02:46:04.193Z,74.95
2019-02-20T02:48:32.442Z,65.55
2019-02-20T02:51:00.743Z,70.52
2019-02-20T02:53:30.973Z,66.82
2019-02-20T02:55:59.023Z,61.05
2019-02-20T02:58:27.273Z,67.22
2019-02-20T03:00:55.544Z,72.27
2019-02-20T03:03:23.804Z,78.97
2019-02-20T03:05:52.082Z,72.75
2019-02-20T03:08:20.344Z,70.35
2019-02-20T03:10:48.667Z,92.33
2019-02-20T03:13:16.930Z,74.32
2019-02-20T03:15:45.192Z,67.12
2019-02-20T03:18:13.471Z,55.15
2019-02-20T03:20:41.754Z,58.30
2019-02-20T03:23:10.017Z,55.28
2019-02-20T03:25:38.270Z,62.05
2019-02-20T03:28:06.545Z,65.70
2019-02-20T03:30:34.827Z,60.40
2019-02-20T03:33:03.084Z,108.63
2019-02-20T03:35:31.364Z,77.72
2019-02-20T03:37:59.626Z,86.78
2019-02-20T03:40:27.940Z,60.23
2019-02-20T03:42:56.198Z,69.10
2019-02-20T03:45:24.437Z,54.05
2019-02-20T03:47:52.722Z,55.70
2019-02-20T03:50:22.639Z,54.98
2019-02-20T03:52:50.905Z,84.05
2019-02-20T03:55:19.178Z,85.03
2019-02-20T03:57:47.563Z,59.55
2019-02-20T04:00:15.942Z,63.70
2019-02-20T04:02:44.209Z,69.42
2019-02-20T04:05:12.504Z,86.37
2019-02-20T04:07:40.756Z,99.90
2019-02-20T04:10:09.195Z,96.65
2019-02-20T04:12:37.470Z,83.75
2019-02-20T04:15:07.266Z,73.87
2019-02-20T04:17:35.534Z,99.65
2019-02-20T04:20:05.693Z,86.20
2019-02-20T04:22:33.947Z,69.82
2019-02-20T04:25:02.217Z,123.25
2019-02-20T04:27:30.494Z,82.12
2019-02-20T04:29:58.783Z,84.50
2019-02-20T04:32:27.033Z,53.23
2019-02-20T04:34:55.323Z,55.63
2019-02-20T04:37:23.581Z,60.08
2019-02-20T04:39:51.840Z,76.55
2019-02-20T04:42:20.123Z,83.52
2019-02-20T04:44:48.392Z,75.40
2019-02-20T04:47:16.648Z,70.12
2019-02-20T04:49:44.915Z,71.50
2019-02-20T04:52:13.171Z,75.52
2019-02-20T04:54:41.470Z,71.75
2019-02-20T04:57:09.706Z,81.75
2019-02-20T04:59:37.996Z,85.85
2019-02-20T05:02:06.255Z,102.25
2019-02-20T05:04:34.529Z,110.28
2019-02-20T05:07:02.792Z,117.33
2019-02-20T05:09:31.075Z,128.05
2019-02-20T05:11:59.337Z,145.57
2019-02-20T05:14:27.625Z,150.40
2019-02-20T05:16:55.883Z,379.38
2019-02-20T05:19:24.174Z,173.32
2019-02-20T05:21:52.478Z,211.28
2019-02-20T05:24:24.549Z,270.97
2019-02-20T05:26:50.787Z,223.00
2019-02-20T05:29:19.024Z,243.35
2019-02-20T05:31:47.318Z,169.82
2019-02-20T05:34:15.593Z,233.95
2019-02-20T05:36:43.858Z,142.30
2019-02-20T05:39:12.154Z,155.35
2019-02-20T05:41:40.713Z,212.53
2019-02-20T05:44:08.981Z,176.30
2019-02-20T05:46:37.234Z,169.93
2019-02-20T05:49:05.529Z,271.10
2019-02-20T05:51:33.917Z,247.70
2019-02-20T05:54:02.280Z,261.23
2019-02-20T05:57:40.655Z,289.25
2019-02-20T06:00:11.887Z,270.00
2019-02-20T06:02:40.167Z,175.75
2019-02-20T06:05:08.414Z,160.72
2019-02-20T06:07:36.699Z,183.03
2019-02-20T06:10:07.294Z,152.25
2019-02-20T06:12:35.572Z,207.80
2019-02-20T06:15:05.096Z,207.65
2019-02-20T06:17:33.381Z,176.60
2019-02-20T06:20:01.659Z,205.95
2019-02-20T06:22:29.899Z,189.90
2019-02-20T06:24:58.178Z,223.80
2019-02-20T06:27:26.464Z,273.25
2019-02-20T06:29:54.738Z,501.20
2019-02-20T06:32:24.179Z,851.67
2019-02-20T06:34:52.607Z,1062.83
2019-02-20T06:37:20.880Z,436.00
2019-02-20T06:39:49.178Z,159.82
2019-02-20T06:42:17.449Z,83.85
2019-02-20T06:44:45.708Z,364.20
2019-02-20T06:47:14.007Z,452.10
2019-02-20T06:49:42.274Z,431.17
2019-02-20T06:52:10.578Z,275.85
2019-02-20T06:54:38.872Z,207.60
2019-02-20T06:57:07.140Z,248.60
2019-02-20T06:59:35.412Z,187.15
2019-02-20T07:02:03.681Z,166.25
2019-02-20T07:04:31.971Z,165.28
2019-02-20T07:07:06.544Z,154.95
2019-02-20T07:09:56.054Z,157.67
2019-02-20T07:12:44.015Z,144.17
2019-02-20T07:15:18.344Z,138.97
2019-02-20T07:18:08.178Z,175.62
2019-02-20T07:20:52.092Z,177.93
2019-02-20T07:23:38.937Z,161.30
2019-02-20T07:26:44.773Z,157.90
2019-02-20T07:29:36.101Z,166.68
2019-02-20T07:32:04.412Z,149.73
2019-02-20T07:34:32.719Z,122.55
2019-02-20T07:37:01.034Z,136.47
2019-02-20T07:39:29.284Z,121.53
2019-02-20T07:41:57.578Z,130.10
2019-02-20T07:44:25.845Z,135.05
2019-02-20T07:46:54.121Z,139.62
2019-02-20T07:49:22.390Z,160.52
2019-02-20T07:51:50.658Z,183.27
2019-02-20T07:54:18.954Z,197.62
2019-02-20T07:56:47.212Z,126.00
2019-02-20T07:59:15.504Z,109.95
2019-02-20T08:01:43.771Z,202.25
2019-02-20T08:04:12.045Z,170.70
2019-02-20T08:06:40.315Z,285.40
2019-02-20T08:09:08.623Z,270.95
2019-02-20T08:11:36.884Z,390.07
2019-02-20T08:14:05.160Z,172.17
2019-02-20T08:16:33.420Z,217.35
2019-02-20T08:19:01.714Z,184.37
2019-02-20T08:21:29.978Z,152.15
2019-02-20T08:23:58.228Z,207.65
2019-02-20T08:26:26.518Z,121.53
2019-02-20T08:28:54.799Z,180.57
2019-02-20T08:31:23.081Z,234.18
2019-02-20T08:33:51.345Z,163.97
2019-02-20T08:36:19.649Z,236.05
2019-02-20T08:38:47.906Z,351.77
2019-02-20T08:41:16.181Z,171.72
2019-02-20T08:43:44.477Z,227.05
2019-02-20T08:46:12.750Z,154.75
2019-02-20T08:48:41.084Z,182.15
2019-02-20T08:51:09.342Z,135.50
2019-02-20T08:53:37.645Z,126.38
2019-02-20T08:56:05.936Z,130.15
2019-02-20T08:58:34.185Z,105.10
2019-02-20T09:01:02.444Z,198.55
2019-02-20T09:03:30.739Z,92.78
2019-02-20T09:05:59.002Z,109.72
2019-02-20T09:08:27.278Z,119.28
2019-02-20T09:10:55.553Z,134.07
2019-02-20T09:13:23.842Z,134.45
2019-02-20T09:15:52.104Z,121.37
2019-02-20T09:18:20.425Z,122.28
2019-02-20T09:20:48.672Z,132.55
2019-02-20T09:23:16.946Z,93.35
2019-02-20T09:25:45.222Z,118.02
2019-02-20T09:28:13.486Z,107.87
2019-02-20T09:30:43.428Z,119.82
2019-02-20T09:33:11.715Z,91.90
2019-02-20T09:35:40.014Z,84.22
2019-02-20T09:38:10.417Z,101.05
2019-02-20T09:40:38.287Z,139.45
2019-02-20T09:43:06.546Z,540.02
2019-02-20T09:45:41.633Z,193.93
2019-02-20T09:48:04.850Z,100.30
2019-02-20T09:50:33.148Z,98.78
2019-02-20T09:53:01.456Z,127.67
2019-02-20T09:55:29.741Z,154.27
2019-02-20T09:57:58.036Z,128.95
2019-02-20T10:00:26.308Z,111.62
2019-02-20T10:02:54.600Z,102.62
2019-02-20T10:05:22.870Z,151.37
2019-02-20T10:07:51.160Z,90.57
2019-02-20T10:10:19.437Z,149.50
2019-02-20T10:12:47.733Z,75.05
2019-02-20T10:15:20.135Z,126.75
2019-02-20T10:17:48.988Z,133.87
2019-02-20T10:20:17.285Z,155.75
2019-02-20T10:22:45.593Z,109.72
2019-02-20T10:25:14.022Z,65.12
2019-02-20T10:27:42.349Z,80.67
2019-02-20T10:30:18.205Z,81.72
2019-02-20T10:32:46.480Z,63.25
2019-02-20T10:35:14.773Z,61.10
2019-02-20T10:37:43.032Z,50.35
2019-02-20T10:40:11.765Z,30.97
2019-02-20T10:42:40.036Z,39.95
2019-02-20T10:45:11.917Z,54.30
2019-02-20T10:47:40.187Z,66.55
2019-02-20T10:50:10.710Z,64.65
2019-02-20T10:52:38.989Z,89.25
2019-02-20T10:55:08.584Z,38.78
2019-02-20T10:57:36.946Z,50.65
2019-02-20T11:00:09.894Z,66.87
2019-02-20T11:02:38.155Z,38.50
2019-02-20T11:05:06.686Z,48.42
2019-02-20T11:07:34.970Z,59.03
2019-02-20T11:10:03.608Z,39.45
2019-02-20T11:12:31.899Z,53.52
2019-02-20T11:15:00.276Z,46.88
2019-02-20T11:17:28.530Z,46.73
2019-02-20T11:19:56.807Z,74.00
2019-02-20T11:22:25.148Z,34.63
2019-02-20T11:24:53.915Z,37.70
2019-02-20T11:27:23.033Z,23.32
2019-02-20T11:29:51.304Z,30.40
2019-02-20T11:32:19.568Z,130.85
2019-02-20T11:34:47.866Z,49.15
2019-02-20T11:37:16.130Z,38.63
2019-02-20T11:39:44.426Z,37.50
2019-02-20T11:42:12.691Z,29.10
2019-02-20T11:44:40.974Z,25.15
2019-02-20T11:47:09.239Z,33.58
2019-02-20T11:49:37.501Z,28.98
2019-02-20T11:52:05.795Z,45.95
2019-02-20T11:54:34.061Z,40.30
2019-02-20T11:57:02.361Z,83.65
2019-02-20T11:59:30.618Z,49.42
2019-02-20T12:01:58.902Z,53.73
2019-02-20T12:04:27.193Z,26.55
2019-02-20T12:06:55.448Z,32.65
2019-02-20T12:09:24.133Z,24.23
2019-02-20T12:11:54.040Z,27.02
2019-02-20T12:14:24.277Z,32.63
2019-02-20T12:16:52.498Z,34.78
2019-02-20T12:19:20.863Z,30.50
2019-02-20T12:21:49.195Z,17.12
2019-02-20T12:24:17.477Z,17.73
2019-02-20T12:26:45.737Z,34.13
2019-02-20T12:29:14.030Z,29.23
2019-02-20T12:31:42.288Z,25.97
2019-02-20T12:34:10.592Z,28.10
2019-02-20T12:36:38.861Z,44.27
2019-02-20T12:39:07.155Z,31.73
2019-02-20T12:41:35.457Z,35.43
2019-02-20T12:44:03.733Z,29.92
2019-02-20T12:46:31.998Z,52.20
2019-02-20T12:49:00.334Z,37.45
2019-02-20T12:51:28.711Z,81.17
2019-02-20T12:53:56.974Z,126.85
2019-02-20T12:56:25.253Z,110.78
2019-02-20T12:58:53.515Z,83.30
2019-02-20T13:01:21.786Z,41.45
2019-02-20T13:03:50.049Z,27.40
2019-02-20T13:06:18.350Z,29.57
2019-02-20T13:08:46.606Z,26.48
2019-02-20T13:11:14.893Z,30.40
2019-02-20T13:13:43.545Z,31.57
2019-02-20T13:16:11.860Z,37.65
2019-02-20T13:18:40.122Z,41.42
2019-02-20T13:21:08.416Z,42.65
2019-02-20T13:23:36.671Z,38.58
2019-02-20T13:26:04.981Z,136.62
2019-02-20T13:28:33.243Z,58.65
2019-02-20T13:31:01.565Z,45.83
2019-02-20T13:33:29.797Z,73.10
2019-02-20T13:35:58.111Z,158.07
2019-02-20T13:38:26.396Z,48.20
2019-02-20T13:40:54.649Z,45.83
2019-02-20T13:43:22.997Z,93.72
2019-02-20T13:45:51.255Z,38.75
2019-02-20T13:48:19.531Z,34.05
2019-02-20T13:50:47.790Z,29.75
2019-02-20T13:53:16.063Z,25.88
2019-02-20T13:55:44.332Z,41.80
2019-02-20T13:58:12.629Z,35.68
2019-02-20T14:00:42.957Z,96.22
2019-02-20T14:03:13.141Z,57.95
2019-02-20T14:05:41.233Z,47.88
2019-02-20T14:08:09.514Z,56.48
2019-02-20T14:10:37.796Z,48.30
2019-02-20T14:13:06.059Z,48.45
2019-02-20T14:15:34.336Z,114.90
2019-02-20T14:18:02.982Z,99.77
2019-02-20T14:20:31.278Z,62.35
2019-02-20T14:22:59.553Z,82.62
2019-02-20T14:25:27.825Z,39.03
2019-02-20T14:27:56.087Z,43.63
2019-02-20T14:30:24.374Z,27.82
2019-02-20T14:32:52.652Z,77.20
2019-02-20T14:35:21.326Z,125.38
2019-02-20T14:37:49.619Z,115.12
2019-02-20T14:40:17.897Z,42.85
2019-02-20T14:42:46.177Z,71.90
2019-02-20T14:45:16.947Z,94.87
2019-02-20T14:47:45.246Z,73.65
2019-02-20T14:50:14.617Z,100.42
2019-02-20T14:52:43.555Z,209.50
2019-02-20T14:55:11.819Z,147.25
2019-02-20T14:57:40.101Z,331.57
2019-02-20T15:00:15.478Z,215.57
2019-02-20T15:02:43.747Z,60.70
2019-02-20T15:05:12.210Z,40.35
2019-02-20T15:07:41.139Z,77.87
2019-02-20T15:10:10.214Z,62.70
2019-02-20T15:12:38.519Z,60.67
2019-02-20T15:15:12.144Z,116.88
2019-02-20T15:17:40.421Z,37.38
2019-02-20T15:20:11.104Z,301.02
2019-02-20T15:22:39.619Z,239.75
2019-02-20T15:25:09.153Z,87.27
2019-02-20T15:27:37.396Z,76.53
2019-02-20T15:30:12.416Z,92.17
2019-02-20T15:32:40.859Z,59.30
2019-02-20T15:35:09.123Z,59.10
2019-02-20T15:37:37.406Z,417.72
2019-02-20T15:40:07.943Z,87.62
2019-02-20T15:42:36.210Z,381.63
2019-02-20T15:45:06.772Z,65.62
2019-02-20T15:47:35.943Z,67.22
2019-02-20T15:50:09.452Z,67.42
2019-02-20T15:52:39.643Z,89.67
2019-02-20T15:55:11.237Z,103.05
2019-02-20T15:57:39.118Z,61.37
2019-02-20T16:00:17.597Z,75.35
2019-02-20T16:02:45.868Z,88.05
2019-02-20T16:05:14.520Z,57.27
2019-02-20T16:07:45.531Z,37.78
2019-02-20T16:10:13.808Z,59.13
2019-02-20T16:12:43.109Z,49.33
2019-02-20T16:15:11.530Z,83.50
2019-02-20T16:17:39.816Z,75.57
2019-02-20T16:20:10.612Z,124.82
2019-02-20T16:22:38.877Z,101.02
2019-02-20T16:25:11.799Z,94.55
2019-02-20T16:27:46.804Z,134.07
2019-02-20T16:30:15.975Z,82.90
2019-02-20T16:32:51.334Z,81.95
2019-02-20T16:35:21.441Z,76.22
2019-02-20T16:37:51.973Z,97.70
2019-02-20T16:40:20.302Z,103.72
2019-02-20T16:42:48.600Z,91.50
2019-02-20T16:45:20.127Z,147.98
2019-02-20T16:47:54.094Z,126.27
2019-02-20T16:50:22.444Z,158.97
2019-02-20T16:52:50.702Z,189.72
2019-02-20T16:55:19.657Z,166.55
2019-02-20T16:57:56.204Z,186.10
2019-02-20T17:00:20.601Z,194.97
2019-02-20T17:02:49.192Z,219.10
2019-02-20T17:05:17.498Z,186.92
2019-02-20T17:07:45.770Z,211.80
2019-02-20T17:10:15.776Z,208.50
2019-02-20T17:12:44.045Z,176.20
2019-02-20T17:15:16.191Z,178.97
2019-02-20T17:17:44.522Z,165.37
2019-02-20T17:20:17.500Z,180.42
2019-02-20T17:22:45.418Z,203.70
2019-02-20T17:25:14.789Z,217.40
2019-02-20T17:27:43.079Z,233.82
2019-02-20T17:30:16.358Z,245.12
2019-02-20T17:32:45.010Z,141.20
2019-02-20T17:35:13.419Z,163.68
2019-02-20T17:37:41.698Z,116.47
2019-02-20T17:40:12.193Z,126.53
2019-02-20T17:42:40.466Z,122.87
2019-02-20T17:45:14.336Z,142.22
2019-02-20T17:47:45.206Z,154.05
2019-02-20T17:50:22.328Z,201.77
2019-02-20T17:52:51.772Z,230.40
2019-02-20T17:55:20.067Z,265.07
2019-02-20T17:57:48.367Z,283.32
2019-02-20T18:00:19.907Z,233.72
2019-02-20T18:02:48.191Z,223.62
2019-02-20T18:05:16.455Z,225.43
2019-02-20T18:07:49.672Z,362.63
2019-02-20T18:10:15.792Z,403.50
2019-02-20T18:12:44.084Z,318.10
2019-02-20T18:15:13.619Z,340.87
2019-02-20T18:17:41.924Z,353.37
2019-02-20T18:20:11.253Z,259.32
2019-02-20T18:22:39.518Z,231.63
2019-02-20T18:25:11.753Z,244.05
2019-02-20T18:27:40.053Z,290.62
2019-02-20T18:30:13.827Z,279.00
2019-02-20T18:32:42.144Z,334.83
2019-02-20T18:35:13.020Z,329.43
2019-02-20T18:37:41.291Z,260.68
2019-02-20T18:40:12.200Z,212.48
2019-02-20T18:42:40.455Z,215.62
2019-02-20T18:45:10.971Z,209.43
2019-02-20T18:47:39.342Z,193.65
2019-02-20T18:50:10.082Z,186.52
2019-02-20T18:52:38.340Z,178.78
2019-02-20T18:55:09.174Z,198.62
2019-02-20T18:57:37.434Z,185.82
2019-02-20T19:00:11.608Z,195.87
2019-02-20T19:02:39.891Z,212.65
2019-02-20T19:05:09.098Z,206.40
2019-02-20T19:07:37.425Z,218.70
2019-02-20T19:10:11.513Z,231.25
2019-02-20T19:13:00.924Z,213.28
2019-02-20T19:15:48.802Z,214.00
2019-02-20T19:18:43.203Z,245.10
2019-02-20T19:21:20.601Z,214.15
2019-02-20T19:24:16.057Z,189.13
2019-02-20T19:26:56.403Z,177.12
2019-02-20T19:29:33.754Z,168.35
2019-02-20T19:32:26.324Z,159.65
2019-02-20T19:35:06.338Z,159.12
2019-02-20T19:37:54.956Z,193.45
2019-02-20T19:40:32.014Z,211.80
2019-02-20T19:43:27.053Z,205.67
2019-02-20T19:46:00.177Z,177.38
2019-02-20T19:48:39.859Z,425.87
2019-02-20T19:51:27.618Z,171.62
2019-02-20T19:53:59.127Z,212.00
2019-02-20T19:56:36.829Z,352.05
2019-02-20T19:59:17.782Z,200.28
2019-02-20T20:02:01.357Z,321.93
2019-02-20T20:04:49.508Z,274.35
2019-02-20T20:07:32.770Z,246.95
2019-02-20T20:10:13.026Z,252.15
2019-02-20T20:12:44.631Z,264.32
2019-02-20T20:15:34.523Z,234.98
2019-02-20T20:18:11.703Z,407.60
2019-02-20T20:20:58.242Z,290.95
2019-02-20T20:23:46.247Z,330.62
2019-02-20T20:26:38.609Z,476.18
2019-02-20T20:29:16.259Z,326.10
2019-02-20T20:31:53.589Z,405.60
2019-02-20T20:34:46.074Z,353.62
2019-02-20T20:37:23.859Z,380.32
2019-02-20T20:40:04.206Z,404.95
2019-02-20T20:42:44.854Z,242.30
2019-02-20T20:45:33.861Z,194.25
2019-02-20T20:48:14.587Z,151.95
2019-02-20T20:51:20.795Z,417.48
2019-02-20T20:54:18.220Z,513.70
2019-02-20T20:57:12.149Z,392.20
2019-02-20T20:59:43.711Z,327.30
2019-02-20T21:02:15.255Z,440.47
2019-02-20T21:04:53.030Z,286.43
2019-02-20T21:07:42.423Z,471.77
2019-02-20T21:10:13.986Z,452.95
2019-02-20T21:13:02.071Z,394.05
2019-02-20T21:15:59.368Z,371.70
2019-02-20T21:18:51.956Z,418.70
2019-02-20T21:21:32.384Z,461.98
2019-02-20T21:24:03.923Z,527.92
2019-02-20T21:26:52.019Z,420.18
2019-02-20T21:29:32.517Z,271.60
2019-02-20T21:32:04.206Z,374.88
2019-02-20T21:34:52.553Z,334.23
2019-02-20T21:37:46.969Z,316.33
2019-02-20T21:40:51.972Z,345.07
2019-02-20T21:43:29.520Z,457.68
2019-02-20T21:46:06.917Z,350.73
2019-02-20T21:48:41.403Z,400.35
2019-02-20T21:51:15.729Z,541.15
2019-02-20T21:54:15.969Z,455.13
2019-02-20T21:56:56.383Z,456.07
2019-02-20T21:59:43.959Z,304.27
2019-02-20T22:02:33.174Z,385.57
2019-02-20T22:05:07.446Z,272.65
2019-02-20T22:08:12.507Z,236.30
2019-02-20T22:11:00.769Z,412.95
2019-02-20T22:13:41.367Z,425.65
2019-02-20T22:16:15.904Z,307.75
2019-02-20T22:19:08.664Z,277.18
2019-02-20T22:22:15.245Z,252.70
2019-02-20T22:25:12.544Z,242.20
2019-02-20T22:27:55.653Z,252.95
2019-02-20T22:30:36.273Z,252.25
2019-02-20T22:33:10.889Z,234.75
2019-02-20T22:35:57.479Z,197.47
2019-02-20T22:39:02.425Z,189.82
2019-02-20T22:41:36.957Z,141.77
2019-02-20T22:44:23.423Z,219.00
2019-02-20T22:47:17.880Z,241.82
2019-02-20T22:49:58.170Z,358.50
2019-02-20T22:52:35.428Z,177.35
2019-02-20T22:55:21.422Z,184.95
2019-02-20T22:58:10.002Z,215.12
2019-02-20T23:00:58.205Z,228.00
2019-02-20T23:03:32.582Z,227.70
2019-02-20T23:06:20.518Z,228.80
2019-02-20T23:09:26.249Z,245.15
2019-02-20T23:12:16.193Z,235.90
2019-02-20T23:15:00.344Z,281.63
2019-02-20T23:17:29.017Z,226.10
2019-02-20T23:19:57.448Z,520.52
2019-02-20T23:22:25.742Z,617.25
2019-02-20T23:24:54.006Z,263.55
2019-02-20T23:27:22.297Z,247.60
2019-02-20T23:29:50.596Z,181.63
2019-02-20T23:32:18.896Z,347.63
2019-02-20T23:34:47.185Z,307.70
2019-02-20T23:37:15.474Z,286.02
2019-02-20T23:39:43.785Z,229.95
2019-02-20T23:42:12.049Z,304.93
2019-02-20T23:44:40.436Z,163.87
2019-02-20T23:47:08.697Z,156.10
2019-02-20T23:49:36.963Z,172.98
2019-02-20T23:52:05.253Z,175.68
2019-02-20T23:54:33.519Z,278.83
2019-02-20T23:57:01.797Z,461.77
2019-02-20T23:59:30.450Z,1020.83
